Remontnoe, Russia
Current Conditions -  °F | °C
As of 7:30 AM on Wednesday 28 Jan 2015 (Local Time) from URWI Reporting Station
Haze Haze  
Wind Chill: 16°   Ceiling: 200
Heat Index: 27°   Visibility: 1mi
Dew Point: 27°   Wind: 11mph
Humidity: 100%   Direction: 130°SE
Pressure: 30.12"   Gusts: NA
Location:  46.57°N, 43.67°E
Report Text: URWI 280430Z 13005MPS 1700 BR OVC002 M03/M03 Q1020 TEMPO 1000RMK QBB060 OBST OBSC
Loading
Personal Weather Stations






























Interactive Weather Map New forecast layout! Learn more

10-Day Weather Forecast

Advertisements
Track Severe Weather on mobile